sensor_id;sensor_type;location;lat;lon;timestamp;P1;durP1;ratioP1;P2;durP2;ratioP2
14528;SDS011;7351;51.194;4.098;2022-10-17T00:00:27;12.50;;;11.53;;
14528;SDS011;7351;51.194;4.098;2022-10-17T00:02:56;15.33;;;14.10;;
14528;SDS011;7351;51.194;4.098;2022-10-17T00:05:23;14.17;;;13.07;;
14528;SDS011;7351;51.194;4.098;2022-10-17T00:07:50;14.63;;;13.53;;
14528;SDS011;7351;51.194;4.098;2022-10-17T00:10:18;14.57;;;13.40;;
14528;SDS011;7351;51.194;4.098;2022-10-17T00:12:49;16.47;;;15.17;;
14528;SDS011;7351;51.194;4.098;2022-10-17T00:15:18;15.17;;;14.07;;
14528;SDS011;7351;51.194;4.098;2022-10-17T00:17:46;14.17;;;12.90;;
14528;SDS011;7351;51.194;4.098;2022-10-17T00:20:14;14.80;;;13.80;;
14528;SDS011;7351;51.194;4.098;2022-10-17T00:22:42;15.67;;;14.37;;
14528;SDS011;7351;51.194;4.098;2022-10-17T00:25:09;15.00;;;14.03;;
14528;SDS011;7351;51.194;4.098;2022-10-17T00:27:38;14.90;;;13.73;;
14528;SDS011;7351;51.194;4.098;2022-10-17T00:30:06;16.77;;;15.23;;
14528;SDS011;7351;51.194;4.098;2022-10-17T00:32:36;16.00;;;14.80;;
14528;SDS011;7351;51.194;4.098;2022-10-17T00:35:04;17.17;;;15.63;;
14528;SDS011;7351;51.194;4.098;2022-10-17T00:37:35;16.83;;;15.43;;
14528;SDS011;7351;51.194;4.098;2022-10-17T00:40:06;14.87;;;13.63;;
14528;SDS011;7351;51.194;4.098;2022-10-17T00:42:34;15.13;;;13.87;;
14528;SDS011;7351;51.194;4.098;2022-10-17T00:45:04;16.53;;;15.03;;
14528;SDS011;7351;51.194;4.098;2022-10-17T00:47:47;15.70;;;14.47;;
14528;SDS011;7351;51.194;4.098;2022-10-17T00:50:19;16.37;;;14.83;;
14528;SDS011;7351;51.194;4.098;2022-10-17T00:52:57;17.03;;;15.57;;
14528;SDS011;7351;51.194;4.098;2022-10-17T00:55:32;15.33;;;14.03;;
14528;SDS011;7351;51.194;4.098;2022-10-17T00:58:02;15.73;;;14.20;;
14528;SDS011;7351;51.194;4.098;2022-10-17T01:00:31;14.83;;;13.57;;
14528;SDS011;7351;51.194;4.098;2022-10-17T01:02:59;16.97;;;15.77;;
14528;SDS011;7351;51.194;4.098;2022-10-17T01:05:26;17.27;;;15.17;;
14528;SDS011;7351;51.194;4.098;2022-10-17T01:07:54;15.87;;;14.70;;
14528;SDS011;7351;51.194;4.098;2022-10-17T01:10:23;15.43;;;14.10;;
14528;SDS011;7351;51.194;4.098;2022-10-17T01:12:58;16.73;;;15.33;;
14528;SDS011;7351;51.194;4.098;2022-10-17T01:15:37;14.97;;;13.87;;
14528;SDS011;7351;51.194;4.098;2022-10-17T01:18:12;16.87;;;15.27;;
14528;SDS011;7351;51.194;4.098;2022-10-17T01:23:49;22.13;;;16.10;;
14528;SDS011;7351;51.194;4.098;2022-10-17T01:26:39;15.40;;;14.30;;
14528;SDS011;7351;51.194;4.098;2022-10-17T01:29:22;15.77;;;14.33;;
14528;SDS011;7351;51.194;4.098;2022-10-17T01:31:59;15.97;;;14.50;;
14528;SDS011;7351;51.194;4.098;2022-10-17T01:34:30;16.17;;;14.67;;
14528;SDS011;7351;51.194;4.098;2022-10-17T01:37:04;17.40;;;15.87;;
14528;SDS011;7351;51.194;4.098;2022-10-17T01:39:39;17.03;;;15.63;;
14528;SDS011;7351;51.194;4.098;2022-10-17T01:42:16;15.93;;;14.77;;
14528;SDS011;7351;51.194;4.098;2022-10-17T01:44:48;17.07;;;15.60;;
14528;SDS011;7351;51.194;4.098;2022-10-17T01:47:23;16.93;;;15.40;;
14528;SDS011;7351;51.194;4.098;2022-10-17T01:49:53;16.40;;;15.00;;
14528;SDS011;7351;51.194;4.098;2022-10-17T01:52:26;15.80;;;13.97;;
14528;SDS011;7351;51.194;4.098;2022-10-17T01:55:01;16.00;;;14.70;;
14528;SDS011;7351;51.194;4.098;2022-10-17T01:57:34;16.33;;;15.03;;
14528;SDS011;7351;51.194;4.098;2022-10-17T02:00:05;17.43;;;15.97;;
14528;SDS011;7351;51.194;4.098;2022-10-17T02:02:38;17.90;;;16.43;;
14528;SDS011;7351;51.194;4.098;2022-10-17T02:05:06;16.00;;;14.80;;
14528;SDS011;7351;51.194;4.098;2022-10-17T02:07:33;15.50;;;14.20;;
14528;SDS011;7351;51.194;4.098;2022-10-17T02:10:01;17.20;;;15.90;;
14528;SDS011;7351;51.194;4.098;2022-10-17T02:12:34;16.13;;;14.83;;
14528;SDS011;7351;51.194;4.098;2022-10-17T02:15:21;17.67;;;16.07;;
14528;SDS011;7351;51.194;4.098;2022-10-17T02:18:03;17.17;;;15.97;;
14528;SDS011;7351;51.194;4.098;2022-10-17T02:20:43;17.07;;;15.60;;
14528;SDS011;7351;51.194;4.098;2022-10-17T02:23:16;16.70;;;15.17;;
14528;SDS011;7351;51.194;4.098;2022-10-17T02:25:53;20.33;;;16.73;;
14528;SDS011;7351;51.194;4.098;2022-10-17T02:28:28;16.70;;;15.33;;
14528;SDS011;7351;51.194;4.098;2022-10-17T02:31:01;16.97;;;15.67;;
14528;SDS011;7351;51.194;4.098;2022-10-17T02:33:34;16.53;;;14.97;;
14528;SDS011;7351;51.194;4.098;2022-10-17T02:36:08;16.37;;;14.90;;
14528;SDS011;7351;51.194;4.098;2022-10-17T02:38:39;17.03;;;15.50;;
14528;SDS011;7351;51.194;4.098;2022-10-17T02:41:09;17.27;;;15.60;;
14528;SDS011;7351;51.194;4.098;2022-10-17T02:43:39;17.13;;;15.63;;
14528;SDS011;7351;51.194;4.098;2022-10-17T02:46:17;17.77;;;16.10;;
14528;SDS011;7351;51.194;4.098;2022-10-17T02:49:00;17.97;;;16.60;;
14528;SDS011;7351;51.194;4.098;2022-10-17T02:51:30;17.60;;;15.97;;
14528;SDS011;7351;51.194;4.098;2022-10-17T02:54:05;15.53;;;14.33;;
14528;SDS011;7351;51.194;4.098;2022-10-17T02:56:39;16.77;;;15.27;;
14528;SDS011;7351;51.194;4.098;2022-10-17T02:59:11;17.13;;;15.40;;
14528;SDS011;7351;51.194;4.098;2022-10-17T03:01:42;16.70;;;15.00;;
14528;SDS011;7351;51.194;4.098;2022-10-17T03:04:12;20.13;;;14.90;;
14528;SDS011;7351;51.194;4.098;2022-10-17T03:06:40;17.20;;;15.67;;
14528;SDS011;7351;51.194;4.098;2022-10-17T03:09:09;17.10;;;15.80;;
14528;SDS011;7351;51.194;4.098;2022-10-17T03:11:36;15.23;;;14.17;;
14528;SDS011;7351;51.194;4.098;2022-10-17T03:14:04;18.57;;;16.73;;
14528;SDS011;7351;51.194;4.098;2022-10-17T03:16:31;16.33;;;14.83;;
14528;SDS011;7351;51.194;4.098;2022-10-17T03:18:58;17.23;;;15.67;;
14528;SDS011;7351;51.194;4.098;2022-10-17T03:21:27;17.13;;;15.37;;
14528;SDS011;7351;51.194;4.098;2022-10-17T03:23:54;15.53;;;14.00;;
14528;SDS011;7351;51.194;4.098;2022-10-17T03:26:21;16.17;;;14.67;;
14528;SDS011;7351;51.194;4.098;2022-10-17T03:28:49;16.23;;;14.47;;
14528;SDS011;7351;51.194;4.098;2022-10-17T03:31:16;18.33;;;14.57;;
14528;SDS011;7351;51.194;4.098;2022-10-17T03:33:45;13.93;;;12.77;;
14528;SDS011;7351;51.194;4.098;2022-10-17T03:36:14;14.60;;;13.40;;
14528;SDS011;7351;51.194;4.098;2022-10-17T03:38:43;15.33;;;13.93;;
14528;SDS011;7351;51.194;4.098;2022-10-17T03:41:11;14.33;;;13.37;;
14528;SDS011;7351;51.194;4.098;2022-10-17T03:43:39;14.03;;;12.77;;
14528;SDS011;7351;51.194;4.098;2022-10-17T03:46:06;14.00;;;12.80;;
14528;SDS011;7351;51.194;4.098;2022-10-17T03:48:33;12.53;;;11.53;;
14528;SDS011;7351;51.194;4.098;2022-10-17T03:51:01;14.03;;;12.37;;
14528;SDS011;7351;51.194;4.098;2022-10-17T03:53:30;13.37;;;12.07;;
14528;SDS011;7351;51.194;4.098;2022-10-17T03:56:07;13.03;;;11.87;;
14528;SDS011;7351;51.194;4.098;2022-10-17T03:58:35;14.00;;;11.73;;
14528;SDS011;7351;51.194;4.098;2022-10-17T04:01:02;12.60;;;11.60;;
14528;SDS011;7351;51.194;4.098;2022-10-17T04:03:30;12.50;;;11.50;;
14528;SDS011;7351;51.194;4.098;2022-10-17T04:05:57;12.23;;;11.17;;
14528;SDS011;7351;51.194;4.098;2022-10-17T04:08:25;13.50;;;12.30;;
14528;SDS011;7351;51.194;4.098;2022-10-17T04:10:52;12.53;;;11.37;;
14528;SDS011;7351;51.194;4.098;2022-10-17T04:13:25;12.87;;;11.97;;
14528;SDS011;7351;51.194;4.098;2022-10-17T04:15:56;12.77;;;11.57;;
14528;SDS011;7351;51.194;4.098;2022-10-17T04:18:24;12.23;;;11.43;;
14528;SDS011;7351;51.194;4.098;2022-10-17T04:20:51;12.43;;;11.13;;
14528;SDS011;7351;51.194;4.098;2022-10-17T04:23:18;12.87;;;11.97;;
14528;SDS011;7351;51.194;4.098;2022-10-17T04:25:45;12.37;;;10.33;;
14528;SDS011;7351;51.194;4.098;2022-10-17T04:28:12;15.90;;;12.20;;
14528;SDS011;7351;51.194;4.098;2022-10-17T04:30:41;12.50;;;11.30;;
14528;SDS011;7351;51.194;4.098;2022-10-17T04:33:08;14.93;;;10.47;;
14528;SDS011;7351;51.194;4.098;2022-10-17T04:35:35;15.27;;;11.53;;
14528;SDS011;7351;51.194;4.098;2022-10-17T04:38:02;12.77;;;11.87;;
14528;SDS011;7351;51.194;4.098;2022-10-17T04:40:29;12.30;;;11.20;;
14528;SDS011;7351;51.194;4.098;2022-10-17T04:42:56;10.90;;;10.13;;
14528;SDS011;7351;51.194;4.098;2022-10-17T04:45:23;16.20;;;12.23;;
14528;SDS011;7351;51.194;4.098;2022-10-17T04:47:51;11.90;;;10.87;;
14528;SDS011;7351;51.194;4.098;2022-10-17T04:50:18;11.77;;;10.77;;
14528;SDS011;7351;51.194;4.098;2022-10-17T04:52:45;10.20;;;9.40;;
14528;SDS011;7351;51.194;4.098;2022-10-17T04:55:12;11.07;;;10.27;;
14528;SDS011;7351;51.194;4.098;2022-10-17T04:57:39;10.70;;;9.80;;
14528;SDS011;7351;51.194;4.098;2022-10-17T05:00:06;11.97;;;10.90;;
14528;SDS011;7351;51.194;4.098;2022-10-17T05:02:34;11.20;;;10.00;;
14528;SDS011;7351;51.194;4.098;2022-10-17T05:05:03;10.47;;;9.63;;
14528;SDS011;7351;51.194;4.098;2022-10-17T05:07:30;15.30;;;9.63;;
14528;SDS011;7351;51.194;4.098;2022-10-17T05:09:57;11.93;;;10.67;;
14528;SDS011;7351;51.194;4.098;2022-10-17T05:12:24;12.50;;;11.20;;
14528;SDS011;7351;51.194;4.098;2022-10-17T05:14:51;12.13;;;10.27;;
14528;SDS011;7351;51.194;4.098;2022-10-17T05:17:18;10.70;;;9.50;;
14528;SDS011;7351;51.194;4.098;2022-10-17T05:19:45;11.30;;;10.40;;
14528;SDS011;7351;51.194;4.098;2022-10-17T05:22:13;10.73;;;9.80;;
14528;SDS011;7351;51.194;4.098;2022-10-17T05:24:40;10.50;;;9.60;;
14528;SDS011;7351;51.194;4.098;2022-10-17T05:27:07;12.67;;;11.67;;
14528;SDS011;7351;51.194;4.098;2022-10-17T05:29:34;10.77;;;10.03;;
14528;SDS011;7351;51.194;4.098;2022-10-17T05:32:01;12.73;;;10.57;;
14528;SDS011;7351;51.194;4.098;2022-10-17T05:34:28;11.97;;;10.70;;
14528;SDS011;7351;51.194;4.098;2022-10-17T05:36:56;11.37;;;10.23;;
14528;SDS011;7351;51.194;4.098;2022-10-17T05:39:25;10.80;;;9.30;;
14528;SDS011;7351;51.194;4.098;2022-10-17T05:41:51;10.07;;;9.20;;
14528;SDS011;7351;51.194;4.098;2022-10-17T05:44:18;11.27;;;10.27;;
14528;SDS011;7351;51.194;4.098;2022-10-17T05:46:46;10.03;;;9.20;;
14528;SDS011;7351;51.194;4.098;2022-10-17T05:49:14;11.20;;;10.20;;
14528;SDS011;7351;51.194;4.098;2022-10-17T05:51:41;11.63;;;10.53;;
14528;SDS011;7351;51.194;4.098;2022-10-17T05:54:08;11.93;;;10.77;;
14528;SDS011;7351;51.194;4.098;2022-10-17T05:56:37;13.00;;;11.33;;
14528;SDS011;7351;51.194;4.098;2022-10-17T05:59:04;11.23;;;10.33;;
14528;SDS011;7351;51.194;4.098;2022-10-17T06:01:32;11.77;;;10.77;;
14528;SDS011;7351;51.194;4.098;2022-10-17T06:03:59;10.80;;;10.00;;
14528;SDS011;7351;51.194;4.098;2022-10-17T06:06:26;12.43;;;11.13;;
14528;SDS011;7351;51.194;4.098;2022-10-17T06:08:53;11.67;;;10.57;;
14528;SDS011;7351;51.194;4.098;2022-10-17T06:11:19;13.27;;;12.07;;
14528;SDS011;7351;51.194;4.098;2022-10-17T06:13:48;12.00;;;11.07;;
14528;SDS011;7351;51.194;4.098;2022-10-17T06:16:15;11.87;;;10.87;;
14528;SDS011;7351;51.194;4.098;2022-10-17T06:18:42;11.67;;;10.67;;
14528;SDS011;7351;51.194;4.098;2022-10-17T06:21:10;12.23;;;11.10;;
14528;SDS011;7351;51.194;4.098;2022-10-17T06:23:40;12.20;;;10.83;;
14528;SDS011;7351;51.194;4.098;2022-10-17T06:26:07;11.90;;;10.77;;
14528;SDS011;7351;51.194;4.098;2022-10-17T06:28:34;12.97;;;11.70;;
14528;SDS011;7351;51.194;4.098;2022-10-17T06:31:04;10.77;;;10.07;;
14528;SDS011;7351;51.194;4.098;2022-10-17T06:33:32;11.63;;;10.57;;
14528;SDS011;7351;51.194;4.098;2022-10-17T06:35:59;14.57;;;10.03;;
14528;SDS011;7351;51.194;4.098;2022-10-17T06:38:26;11.63;;;10.43;;
14528;SDS011;7351;51.194;4.098;2022-10-17T06:41:01;13.80;;;9.47;;
14528;SDS011;7351;51.194;4.098;2022-10-17T06:43:31;12.33;;;10.70;;
14528;SDS011;7351;51.194;4.098;2022-10-17T06:45:59;12.23;;;11.03;;
14528;SDS011;7351;51.194;4.098;2022-10-17T06:48:27;11.27;;;10.17;;
14528;SDS011;7351;51.194;4.098;2022-10-17T06:50:57;18.23;;;12.97;;
14528;SDS011;7351;51.194;4.098;2022-10-17T06:53:25;16.70;;;11.43;;
14528;SDS011;7351;51.194;4.098;2022-10-17T06:55:53;21.87;;;13.23;;
14528;SDS011;7351;51.194;4.098;2022-10-17T06:58:25;13.30;;;11.90;;
14528;SDS011;7351;51.194;4.098;2022-10-17T07:00:56;12.67;;;11.43;;
14528;SDS011;7351;51.194;4.098;2022-10-17T07:03:24;13.47;;;12.33;;
14528;SDS011;7351;51.194;4.098;2022-10-17T07:05:54;14.13;;;12.93;;
14528;SDS011;7351;51.194;4.098;2022-10-17T07:08:21;14.87;;;10.83;;
14528;SDS011;7351;51.194;4.098;2022-10-17T07:10:49;13.80;;;12.50;;
14528;SDS011;7351;51.194;4.098;2022-10-17T07:13:17;13.17;;;11.87;;
14528;SDS011;7351;51.194;4.098;2022-10-17T07:15:44;12.93;;;11.73;;
14528;SDS011;7351;51.194;4.098;2022-10-17T07:18:11;13.20;;;11.93;;
14528;SDS011;7351;51.194;4.098;2022-10-17T07:20:39;14.67;;;13.03;;
14528;SDS011;7351;51.194;4.098;2022-10-17T07:23:07;12.77;;;11.57;;
14528;SDS011;7351;51.194;4.098;2022-10-17T07:25:35;14.13;;;12.50;;
14528;SDS011;7351;51.194;4.098;2022-10-17T07:28:02;14.73;;;12.33;;
14528;SDS011;7351;51.194;4.098;2022-10-17T07:30:29;12.53;;;11.43;;
14528;SDS011;7351;51.194;4.098;2022-10-17T07:32:56;12.77;;;11.43;;
14528;SDS011;7351;51.194;4.098;2022-10-17T07:35:24;13.40;;;12.03;;
14528;SDS011;7351;51.194;4.098;2022-10-17T07:37:51;14.97;;;12.70;;
14528;SDS011;7351;51.194;4.098;2022-10-17T07:40:19;13.40;;;12.10;;
14528;SDS011;7351;51.194;4.098;2022-10-17T07:42:46;12.63;;;11.47;;
14528;SDS011;7351;51.194;4.098;2022-10-17T07:45:13;13.97;;;12.93;;
14528;SDS011;7351;51.194;4.098;2022-10-17T07:47:41;14.97;;;12.63;;
14528;SDS011;7351;51.194;4.098;2022-10-17T07:50:08;15.23;;;13.73;;
14528;SDS011;7351;51.194;4.098;2022-10-17T07:52:35;13.67;;;12.27;;
14528;SDS011;7351;51.194;4.098;2022-10-17T07:55:02;13.00;;;11.67;;
14528;SDS011;7351;51.194;4.098;2022-10-17T07:57:32;13.40;;;12.27;;
14528;SDS011;7351;51.194;4.098;2022-10-17T07:59:58;14.33;;;13.00;;
14528;SDS011;7351;51.194;4.098;2022-10-17T08:02:26;12.97;;;11.87;;
14528;SDS011;7351;51.194;4.098;2022-10-17T08:04:53;14.47;;;13.20;;
14528;SDS011;7351;51.194;4.098;2022-10-17T08:07:20;12.20;;;11.30;;
14528;SDS011;7351;51.194;4.098;2022-10-17T08:09:47;13.20;;;11.93;;
14528;SDS011;7351;51.194;4.098;2022-10-17T08:12:14;13.57;;;12.17;;
14528;SDS011;7351;51.194;4.098;2022-10-17T08:14:43;13.40;;;12.20;;
14528;SDS011;7351;51.194;4.098;2022-10-17T08:17:10;13.17;;;11.50;;
14528;SDS011;7351;51.194;4.098;2022-10-17T08:19:38;13.43;;;12.23;;
14528;SDS011;7351;51.194;4.098;2022-10-17T08:22:05;13.83;;;11.90;;
14528;SDS011;7351;51.194;4.098;2022-10-17T08:24:32;12.37;;;11.13;;
14528;SDS011;7351;51.194;4.098;2022-10-17T08:26:59;10.80;;;9.90;;
14528;SDS011;7351;51.194;4.098;2022-10-17T08:29:28;11.23;;;10.20;;
14528;SDS011;7351;51.194;4.098;2022-10-17T08:31:58;12.17;;;11.03;;
14528;SDS011;7351;51.194;4.098;2022-10-17T08:34:25;12.23;;;11.03;;
14528;SDS011;7351;51.194;4.098;2022-10-17T08:36:52;12.93;;;11.73;;
14528;SDS011;7351;51.194;4.098;2022-10-17T08:39:19;13.17;;;11.60;;
14528;SDS011;7351;51.194;4.098;2022-10-17T08:41:49;11.80;;;11.00;;
14528;SDS011;7351;51.194;4.098;2022-10-17T08:44:28;12.40;;;11.23;;
14528;SDS011;7351;51.194;4.098;2022-10-17T08:47:08;11.50;;;9.93;;
14528;SDS011;7351;51.194;4.098;2022-10-17T08:49:39;11.50;;;10.43;;
14528;SDS011;7351;51.194;4.098;2022-10-17T08:52:14;9.23;;;8.47;;
14528;SDS011;7351;51.194;4.098;2022-10-17T08:54:47;9.60;;;8.50;;
14528;SDS011;7351;51.194;4.098;2022-10-17T08:57:16;8.53;;;7.93;;
14528;SDS011;7351;51.194;4.098;2022-10-17T08:59:43;9.80;;;9.03;;
14528;SDS011;7351;51.194;4.098;2022-10-17T09:02:23;9.50;;;8.70;;
14528;SDS011;7351;51.194;4.098;2022-10-17T09:08:09;8.67;;;7.97;;
14528;SDS011;7351;51.194;4.098;2022-10-17T09:10:47;8.83;;;8.07;;
14528;SDS011;7351;51.194;4.098;2022-10-17T09:13:23;10.53;;;9.67;;
14528;SDS011;7351;51.194;4.098;2022-10-17T09:16:12;8.63;;;7.83;;
14528;SDS011;7351;51.194;4.098;2022-10-17T09:18:49;9.07;;;8.17;;
14528;SDS011;7351;51.194;4.098;2022-10-17T09:21:24;9.30;;;8.53;;
14528;SDS011;7351;51.194;4.098;2022-10-17T09:23:59;15.17;;;11.83;;
14528;SDS011;7351;51.194;4.098;2022-10-17T09:26:29;7.57;;;7.00;;
14528;SDS011;7351;51.194;4.098;2022-10-17T09:28:58;9.67;;;8.73;;
14528;SDS011;7351;51.194;4.098;2022-10-17T09:31:28;7.87;;;7.03;;
14528;SDS011;7351;51.194;4.098;2022-10-17T09:34:01;10.80;;;7.97;;
14528;SDS011;7351;51.194;4.098;2022-10-17T09:36:29;8.33;;;6.93;;
14528;SDS011;7351;51.194;4.098;2022-10-17T09:38:59;7.03;;;6.57;;
14528;SDS011;7351;51.194;4.098;2022-10-17T09:41:29;8.20;;;7.47;;
14528;SDS011;7351;51.194;4.098;2022-10-17T09:44:07;9.50;;;7.50;;
14528;SDS011;7351;51.194;4.098;2022-10-17T09:46:44;22.93;;;8.63;;
14528;SDS011;7351;51.194;4.098;2022-10-17T09:49:25;8.63;;;8.00;;
14528;SDS011;7351;51.194;4.098;2022-10-17T09:51:57;7.17;;;6.67;;
14528;SDS011;7351;51.194;4.098;2022-10-17T09:54:27;9.20;;;7.60;;
14528;SDS011;7351;51.194;4.098;2022-10-17T09:57:03;9.30;;;7.80;;
14528;SDS011;7351;51.194;4.098;2022-10-17T09:59:32;9.40;;;8.20;;
14528;SDS011;7351;51.194;4.098;2022-10-17T10:04:56;7.47;;;6.87;;
14528;SDS011;7351;51.194;4.098;2022-10-17T10:07:24;11.80;;;8.00;;
14528;SDS011;7351;51.194;4.098;2022-10-17T10:09:53;8.13;;;7.43;;
14528;SDS011;7351;51.194;4.098;2022-10-17T10:12:22;9.00;;;8.27;;
14528;SDS011;7351;51.194;4.098;2022-10-17T10:14:51;9.80;;;9.00;;
14528;SDS011;7351;51.194;4.098;2022-10-17T10:17:27;10.23;;;8.33;;
14528;SDS011;7351;51.194;4.098;2022-10-17T10:20:00;10.63;;;8.17;;
14528;SDS011;7351;51.194;4.098;2022-10-17T10:22:27;8.57;;;7.90;;
14528;SDS011;7351;51.194;4.098;2022-10-17T10:25:06;8.80;;;8.10;;
14528;SDS011;7351;51.194;4.098;2022-10-17T10:27:38;9.70;;;7.93;;
14528;SDS011;7351;51.194;4.098;2022-10-17T10:30:14;8.60;;;7.90;;
14528;SDS011;7351;51.194;4.098;2022-10-17T10:32:44;9.00;;;8.37;;
14528;SDS011;7351;51.194;4.098;2022-10-17T10:35:17;8.70;;;7.93;;
14528;SDS011;7351;51.194;4.098;2022-10-17T10:37:48;9.33;;;8.53;;
14528;SDS011;7351;51.194;4.098;2022-10-17T10:40:18;10.40;;;8.07;;
14528;SDS011;7351;51.194;4.098;2022-10-17T10:42:49;8.50;;;7.87;;
14528;SDS011;7351;51.194;4.098;2022-10-17T10:45:18;9.13;;;8.33;;
14528;SDS011;7351;51.194;4.098;2022-10-17T10:47:50;11.17;;;8.47;;
14528;SDS011;7351;51.194;4.098;2022-10-17T10:50:23;10.87;;;8.37;;
14528;SDS011;7351;51.194;4.098;2022-10-17T10:52:58;9.10;;;8.23;;
14528;SDS011;7351;51.194;4.098;2022-10-17T10:55:55;10.40;;;9.37;;
14528;SDS011;7351;51.194;4.098;2022-10-17T10:58:29;9.13;;;8.23;;
14528;SDS011;7351;51.194;4.098;2022-10-17T11:01:03;8.53;;;7.70;;
14528;SDS011;7351;51.194;4.098;2022-10-17T11:03:36;8.87;;;7.97;;
14528;SDS011;7351;51.194;4.098;2022-10-17T11:06:12;7.87;;;7.27;;
14528;SDS011;7351;51.194;4.098;2022-10-17T11:08:44;8.33;;;7.53;;
14528;SDS011;7351;51.194;4.098;2022-10-17T11:11:15;8.50;;;7.90;;
14528;SDS011;7351;51.194;4.098;2022-10-17T11:13:50;6.83;;;6.10;;
14528;SDS011;7351;51.194;4.098;2022-10-17T11:16:26;7.63;;;7.00;;
14528;SDS011;7351;51.194;4.098;2022-10-17T11:18:58;9.00;;;8.10;;
14528;SDS011;7351;51.194;4.098;2022-10-17T11:21:38;8.60;;;7.83;;
14528;SDS011;7351;51.194;4.098;2022-10-17T11:24:13;7.87;;;6.63;;
14528;SDS011;7351;51.194;4.098;2022-10-17T11:26:48;8.10;;;6.33;;
14528;SDS011;7351;51.194;4.098;2022-10-17T11:29:26;6.63;;;5.70;;
14528;SDS011;7351;51.194;4.098;2022-10-17T11:31:56;7.00;;;6.40;;
14528;SDS011;7351;51.194;4.098;2022-10-17T11:34:30;6.60;;;5.77;;
14528;SDS011;7351;51.194;4.098;2022-10-17T11:37:03;6.63;;;5.63;;
14528;SDS011;7351;51.194;4.098;2022-10-17T11:39:37;4.97;;;4.60;;
14528;SDS011;7351;51.194;4.098;2022-10-17T11:42:10;9.00;;;6.50;;
14528;SDS011;7351;51.194;4.098;2022-10-17T11:44:39;6.70;;;6.17;;
14528;SDS011;7351;51.194;4.098;2022-10-17T11:47:10;6.47;;;5.97;;
14528;SDS011;7351;51.194;4.098;2022-10-17T11:49:46;7.63;;;6.90;;
14528;SDS011;7351;51.194;4.098;2022-10-17T11:52:22;8.07;;;6.07;;
14528;SDS011;7351;51.194;4.098;2022-10-17T11:55:01;6.87;;;6.10;;
14528;SDS011;7351;51.194;4.098;2022-10-17T11:57:35;6.10;;;5.50;;
14528;SDS011;7351;51.194;4.098;2022-10-17T12:00:20;13.17;;;6.53;;
14528;SDS011;7351;51.194;4.098;2022-10-17T12:02:57;7.53;;;6.87;;
14528;SDS011;7351;51.194;4.098;2022-10-17T12:05:33;7.50;;;6.80;;
14528;SDS011;7351;51.194;4.098;2022-10-17T12:08:10;6.83;;;6.20;;
14528;SDS011;7351;51.194;4.098;2022-10-17T12:10:44;14.10;;;7.67;;
14528;SDS011;7351;51.194;4.098;2022-10-17T12:16:36;7.13;;;6.43;;
14528;SDS011;7351;51.194;4.098;2022-10-17T12:19:14;10.37;;;8.63;;
14528;SDS011;7351;51.194;4.098;2022-10-17T12:21:53;8.37;;;7.13;;
14528;SDS011;7351;51.194;4.098;2022-10-17T12:24:52;8.10;;;7.40;;
14528;SDS011;7351;51.194;4.098;2022-10-17T12:27:30;9.47;;;8.13;;
14528;SDS011;7351;51.194;4.098;2022-10-17T12:30:15;8.47;;;7.77;;
14528;SDS011;7351;51.194;4.098;2022-10-17T12:32:54;14.33;;;7.67;;
14528;SDS011;7351;51.194;4.098;2022-10-17T12:35:41;8.40;;;7.60;;
14528;SDS011;7351;51.194;4.098;2022-10-17T12:40:56;8.90;;;7.47;;
14528;SDS011;7351;51.194;4.098;2022-10-17T12:43:38;7.87;;;7.20;;
14528;SDS011;7351;51.194;4.098;2022-10-17T12:46:10;13.53;;;8.70;;
14528;SDS011;7351;51.194;4.098;2022-10-17T12:57:43;8.57;;;7.87;;
14528;SDS011;7351;51.194;4.098;2022-10-17T13:00:18;9.13;;;8.33;;
14528;SDS011;7351;51.194;4.098;2022-10-17T13:02:48;10.77;;;8.70;;
14528;SDS011;7351;51.194;4.098;2022-10-17T13:05:20;10.07;;;8.73;;
14528;SDS011;7351;51.194;4.098;2022-10-17T13:07:54;9.03;;;8.23;;
14528;SDS011;7351;51.194;4.098;2022-10-17T13:10:24;9.50;;;8.57;;
14528;SDS011;7351;51.194;4.098;2022-10-17T13:12:56;10.40;;;9.47;;
14528;SDS011;7351;51.194;4.098;2022-10-17T13:15:30;10.63;;;9.63;;
14528;SDS011;7351;51.194;4.098;2022-10-17T13:17:59;10.27;;;9.27;;
14528;SDS011;7351;51.194;4.098;2022-10-17T13:20:27;11.17;;;9.37;;
14528;SDS011;7351;51.194;4.098;2022-10-17T13:22:55;10.70;;;9.73;;
14528;SDS011;7351;51.194;4.098;2022-10-17T13:25:23;10.00;;;9.18;;
14528;SDS011;7351;51.194;4.098;2022-10-17T13:27:58;10.27;;;9.23;;
14528;SDS011;7351;51.194;4.098;2022-10-17T13:30:33;10.03;;;8.73;;
14528;SDS011;7351;51.194;4.098;2022-10-17T13:33:01;10.30;;;8.90;;
14528;SDS011;7351;51.194;4.098;2022-10-17T13:35:39;9.85;;;8.25;;
14528;SDS011;7351;51.194;4.098;2022-10-17T13:38:06;9.85;;;8.07;;
14528;SDS011;7351;51.194;4.098;2022-10-17T13:40:37;9.00;;;8.20;;
14528;SDS011;7351;51.194;4.098;2022-10-17T13:43:10;11.00;;;8.70;;
14528;SDS011;7351;51.194;4.098;2022-10-17T13:45:44;8.47;;;7.70;;
14528;SDS011;7351;51.194;4.098;2022-10-17T13:48:16;9.83;;;8.87;;
14528;SDS011;7351;51.194;4.098;2022-10-17T13:50:46;8.73;;;8.03;;
14528;SDS011;7351;51.194;4.098;2022-10-17T13:53:17;8.70;;;7.88;;
14528;SDS011;7351;51.194;4.098;2022-10-17T13:55:50;11.07;;;9.82;;
14528;SDS011;7351;51.194;4.098;2022-10-17T13:58:23;9.33;;;7.97;;
14528;SDS011;7351;51.194;4.098;2022-10-17T14:00:51;11.05;;;8.77;;
14528;SDS011;7351;51.194;4.098;2022-10-17T14:03:19;10.65;;;7.43;;
14528;SDS011;7351;51.194;4.098;2022-10-17T14:06:06;11.57;;;7.78;;
14528;SDS011;7351;51.194;4.098;2022-10-17T14:08:45;8.67;;;7.60;;
14528;SDS011;7351;51.194;4.098;2022-10-17T14:11:17;7.82;;;7.20;;
14528;SDS011;7351;51.194;4.098;2022-10-17T14:13:55;9.93;;;7.85;;
14528;SDS011;7351;51.194;4.098;2022-10-17T14:16:24;9.23;;;7.30;;
14528;SDS011;7351;51.194;4.098;2022-10-17T14:18:52;10.38;;;7.30;;
14528;SDS011;7351;51.194;4.098;2022-10-17T14:21:21;8.10;;;7.20;;
14528;SDS011;7351;51.194;4.098;2022-10-17T14:23:50;9.30;;;7.23;;
14528;SDS011;7351;51.194;4.098;2022-10-17T14:26:45;8.98;;;8.05;;
14528;SDS011;7351;51.194;4.098;2022-10-17T14:29:19;7.72;;;7.03;;
14528;SDS011;7351;51.194;4.098;2022-10-17T14:31:48;10.75;;;7.13;;
14528;SDS011;7351;51.194;4.098;2022-10-17T14:34:19;9.13;;;7.32;;
14528;SDS011;7351;51.194;4.098;2022-10-17T14:36:50;9.13;;;7.57;;
14528;SDS011;7351;51.194;4.098;2022-10-17T14:39:18;13.20;;;7.07;;
14528;SDS011;7351;51.194;4.098;2022-10-17T14:41:48;15.45;;;7.65;;
14528;SDS011;7351;51.194;4.098;2022-10-17T14:44:20;14.07;;;6.47;;
14528;SDS011;7351;51.194;4.098;2022-10-17T14:46:51;8.10;;;7.10;;
14528;SDS011;7351;51.194;4.098;2022-10-17T14:49:26;8.93;;;7.27;;
14528;SDS011;7351;51.194;4.098;2022-10-17T14:54:54;11.50;;;8.43;;
14528;SDS011;7351;51.194;4.098;2022-10-17T14:57:27;9.40;;;7.22;;
14528;SDS011;7351;51.194;4.098;2022-10-17T15:00:01;10.00;;;8.17;;
14528;SDS011;7351;51.194;4.098;2022-10-17T15:02:29;8.53;;;7.63;;
14528;SDS011;7351;51.194;4.098;2022-10-17T15:04:56;11.47;;;6.63;;
14528;SDS011;7351;51.194;4.098;2022-10-17T15:07:23;11.67;;;8.73;;
14528;SDS011;7351;51.194;4.098;2022-10-17T15:09:51;14.70;;;7.97;;
14528;SDS011;7351;51.194;4.098;2022-10-17T15:12:19;13.63;;;7.23;;
14528;SDS011;7351;51.194;4.098;2022-10-17T15:14:48;20.30;;;8.00;;
14528;SDS011;7351;51.194;4.098;2022-10-17T15:17:19;9.03;;;7.40;;
14528;SDS011;7351;51.194;4.098;2022-10-17T15:19:48;9.30;;;8.50;;
14528;SDS011;7351;51.194;4.098;2022-10-17T15:22:18;12.67;;;8.17;;
14528;SDS011;7351;51.194;4.098;2022-10-17T15:24:46;8.47;;;7.73;;
14528;SDS011;7351;51.194;4.098;2022-10-17T15:27:14;8.23;;;7.47;;
14528;SDS011;7351;51.194;4.098;2022-10-17T15:29:42;18.40;;;8.57;;
14528;SDS011;7351;51.194;4.098;2022-10-17T15:32:10;10.97;;;7.93;;